Time;durP1;ratioP1;P1;durP2;ratioP2;P2;SDS_P1;SDS_P2;PMS_P1;PMS_P2;Temp;Humidity;BMP_temperature;BMP_pressure;BME280_temperature;BME280_humidity;BME280_pressure;Samples;Min_cycle;Max_cycle;Signal;HPM_P1;HPM_P2
2021/03/16 00:00:09;;;;;;;0.60;0.40;;;;;;;4.54;100.00;100463.25;5073338;28;20449;-66
2021/03/16 00:02:35;;;;;;;0.40;0.27;;;;;;;4.38;100.00;100466.13;5073038;28;20832;-67
2021/03/16 00:05:01;;;;;;;0.40;0.30;;;;;;;4.39;100.00;100473.13;5073281;28;20461;-67
2021/03/16 00:07:27;;;;;;;0.40;0.40;;;;;;;4.40;100.00;100470.19;5073331;28;20441;-67
2021/03/16 00:09:54;;;;;;;0.60;0.40;;;;;;;4.45;100.00;100472.88;5073026;28;20457;-67
2021/03/16 00:12:20;;;;;;;0.80;0.70;;;;;;;4.47;100.00;100483.31;5073267;28;20451;-67
2021/03/16 00:14:46;;;;;;;0.40;0.30;;;;;;;4.45;100.00;100477.44;5073196;28;20465;-67
2021/03/16 00:17:11;;;;;;;0.40;0.30;;;;;;;4.45;100.00;100488.97;5073128;28;20539;-68
2021/03/16 00:19:37;;;;;;;0.50;0.40;;;;;;;4.49;100.00;100490.06;5073217;28;20445;-68
2021/03/16 00:22:05;;;;;;;2.33;1.00;;;;;;;4.52;100.00;100488.72;5072834;28;20491;-67
2021/03/16 00:24:31;;;;;;;0.57;0.53;;;;;;;4.57;100.00;100498.66;5073150;28;20453;-67
2021/03/16 00:26:58;;;;;;;0.40;0.30;;;;;;;4.51;100.00;100498.63;5073162;28;20460;-67
2021/03/16 00:29:24;;;;;;;0.50;0.27;;;;;;;4.50;100.00;100494.34;5073109;28;20444;-68
2021/03/16 00:31:50;;;;;;;0.40;0.30;;;;;;;4.53;100.00;100501.06;5073102;28;20437;-67
2021/03/16 00:34:16;;;;;;;0.57;0.57;;;;;;;4.55;100.00;100505.06;5072974;28;20487;-68
2021/03/16 00:36:42;;;;;;;0.90;0.90;;;;;;;4.53;100.00;100507.22;5073007;28;20989;-67
2021/03/16 00:39:08;;;;;;;0.93;0.50;;;;;;;4.46;100.00;100511.22;5073020;28;20498;-67
2021/03/16 00:41:34;;;;;;;0.40;0.20;;;;;;;4.33;100.00;100511.69;5072907;28;20882;-66
2021/03/16 00:44:01;;;;;;;0.40;0.30;;;;;;;4.36;100.00;100516.53;5072870;28;20465;-68
2021/03/16 00:46:27;;;;;;;0.53;0.50;;;;;;;4.41;100.00;100519.25;5072910;28;20445;-67
2021/03/16 00:48:53;;;;;;;0.53;0.53;;;;;;;4.34;100.00;100522.19;5072849;28;20445;-67
2021/03/16 00:51:19;;;;;;;1.33;0.60;;;;;;;4.44;100.00;100521.41;5072901;28;20789;-65
2021/03/16 00:53:45;;;;;;;0.50;0.30;;;;;;;4.39;100.00;100529.44;5072543;28;20842;-67
2021/03/16 00:56:11;;;;;;;0.50;0.40;;;;;;;4.30;100.00;100518.41;5072498;28;20441;-69
2021/03/16 00:58:37;;;;;;;2.80;2.30;;;;;;;4.34;100.00;100540.94;5072549;28;20429;-67
2021/03/16 01:01:06;;;;;;;1.07;1.07;;;;;;;4.35;100.00;100522.97;5072397;28;20488;-67
2021/03/16 01:03:32;;;;;;;0.50;0.50;;;;;;;4.40;100.00;100533.72;5074413;28;20468;-67
2021/03/16 01:05:58;;;;;;;1.57;1.50;;;;;;;4.35;100.00;100534.50;5076688;28;20445;-67
2021/03/16 01:08:24;;;;;;;0.40;0.30;;;;;;;4.33;100.00;100539.31;5076333;28;20436;-66
2021/03/16 01:10:51;;;;;;;1.83;1.00;;;;;;;4.30;100.00;100537.97;5075997;28;21185;-67
2021/03/16 01:13:18;;;;;;;0.40;0.23;;;;;;;4.30;100.00;100537.16;5076440;28;20829;-67
2021/03/16 01:15:44;;;;;;;4.33;0.50;;;;;;;4.28;100.00;100544.66;5076499;28;20481;-67
2021/03/16 01:18:11;;;;;;;4.23;1.83;;;;;;;4.31;100.00;100546.81;5076059;28;20467;-68
2021/03/16 01:20:37;;;;;;;0.63;0.60;;;;;;;4.27;100.00;100549.22;5076293;28;20488;-67
2021/03/16 01:23:04;;;;;;;4.17;0.50;;;;;;;4.30;100.00;100548.69;5076227;28;20461;-68
2021/03/16 01:25:30;;;;;;;2.03;0.80;;;;;;;4.28;100.00;100561.53;5076240;28;20441;-67
2021/03/16 01:27:55;;;;;;;0.40;0.27;;;;;;;4.25;100.00;100562.06;5075918;28;20495;-67
2021/03/16 01:30:22;;;;;;;0.40;0.30;;;;;;;4.22;100.00;100565.28;5076157;28;20441;-67
2021/03/16 01:32:48;;;;;;;0.40;0.30;;;;;;;4.27;100.00;100570.66;5076104;28;20507;-68
2021/03/16 01:35:15;;;;;;;4.23;0.97;;;;;;;4.27;100.00;100570.66;5076071;28;20930;-68
2021/03/16 01:37:42;;;;;;;1.90;0.60;;;;;;;4.35;100.00;100579.28;5076043;28;20440;-66
2021/03/16 01:40:11;;;;;;;0.60;0.50;;;;;;;4.37;100.00;100583.31;5075984;28;20441;-67
2021/03/16 01:42:38;;;;;;;0.60;0.50;;;;;;;4.35;100.00;100585.47;5075614;28;20943;-66
2021/03/16 01:45:08;;;;;;;0.40;0.40;;;;;;;4.26;100.00;100577.09;5075879;28;20461;-67
2021/03/16 01:47:34;;;;;;;0.40;0.30;;;;;;;4.26;100.00;100581.66;5075596;28;20899;-66
2021/03/16 01:50:02;;;;;;;11.33;1.07;;;;;;;4.25;100.00;100580.84;5075796;28;20446;-67
2021/03/16 01:52:29;;;;;;;0.93;0.60;;;;;;;4.26;100.00;100590.50;5075737;28;20441;-67
2021/03/16 01:54:56;;;;;;;0.50;0.40;;;;;;;4.34;100.00;100593.75;5075336;28;20989;-66
2021/03/16 01:57:24;;;;;;;0.93;0.70;;;;;;;4.29;100.00;100587.31;5075725;28;20441;-67
2021/03/16 01:59:51;;;;;;;0.40;0.20;;;;;;;4.20;100.00;100594.19;5075080;28;20461;-67
2021/03/16 02:02:17;;;;;;;0.40;0.30;;;;;;;4.17;100.00;100586.69;5075571;28;20504;-67
2021/03/16 02:04:43;;;;;;;1.77;1.47;;;;;;;4.13;100.00;100587.47;5075383;28;20574;-68
2021/03/16 02:07:15;;;;;;;1.13;1.03;;;;;;;4.19;100.00;100602.50;5075166;28;20894;-66
2021/03/16 02:09:44;;;;;;;0.40;0.30;;;;;;;4.10;100.00;100607.53;5075390;28;20489;-66
2021/03/16 02:12:15;;;;;;;0.40;0.30;;;;;;;3.99;100.00;100609.34;5075069;28;20440;-66
2021/03/16 02:14:45;;;;;;;1.33;1.23;;;;;;;4.03;100.00;100612.31;5074254;28;20450;-67
2021/03/16 02:17:15;;;;;;;0.40;0.30;;;;;;;4.06;100.00;100611.78;5075335;28;20444;-66
2021/03/16 02:20:03;;;;;;;0.40;0.30;;;;;;;4.16;100.00;100617.25;5075282;28;20449;-66
2021/03/16 02:22:32;;;;;;;1.27;1.27;;;;;;;4.22;100.00;100618.88;5075336;28;20461;-67
2021/03/16 02:25:15;;;;;;;0.40;0.33;;;;;;;4.19;100.00;100621.25;5075080;28;20522;-67
2021/03/16 02:27:56;;;;;;;0.60;0.53;;;;;;;4.14;100.00;100627.41;5075211;28;20433;-64
2021/03/16 02:30:25;;;;;;;0.53;0.50;;;;;;;4.18;100.00;100628.50;5075090;28;20441;-67
2021/03/16 02:32:55;;;;;;;0.67;0.67;;;;;;;4.16;100.00;100640.53;5074983;28;20445;-67
2021/03/16 02:35:23;;;;;;;0.40;0.40;;;;;;;4.19;100.00;100640.03;5075064;28;20518;-67
2021/03/16 02:37:51;;;;;;;0.40;0.40;;;;;;;4.12;100.00;100640.25;5074953;28;20444;-66
2021/03/16 02:40:19;;;;;;;0.50;0.40;;;;;;;4.21;100.00;100641.41;5074873;28;20445;-67
2021/03/16 02:42:45;;;;;;;0.40;0.30;;;;;;;4.17;100.00;100650.22;5074754;28;20442;-67
2021/03/16 02:45:12;;;;;;;0.70;0.40;;;;;;;4.16;100.00;100654.78;5074719;28;20456;-67
2021/03/16 02:47:40;;;;;;;0.50;0.43;;;;;;;4.03;100.00;100655.19;5074229;28;20973;-66
2021/03/16 02:50:08;;;;;;;2.00;1.30;;;;;;;4.06;100.00;100657.34;5074290;28;20830;-68
2021/03/16 02:52:36;;;;;;;0.40;0.30;;;;;;;4.10;100.00;100661.13;5074741;28;20817;-67
2021/03/16 02:55:02;;;;;;;2.73;0.80;;;;;;;4.00;100.00;100663.75;5074477;28;20468;-67
2021/03/16 02:57:29;;;;;;;0.50;0.30;;;;;;;3.97;100.00;100661.56;5074503;28;20441;-66
2021/03/16 02:59:59;;;;;;;0.40;0.40;;;;;;;4.05;100.00;100671.81;5074490;28;20441;-67
2021/03/16 03:02:27;;;;;;;3.37;3.07;;;;;;;3.99;100.00;100672.84;5074291;28;20488;-67
2021/03/16 03:04:55;;;;;;;0.50;0.50;;;;;;;4.01;100.00;100681.44;5074343;28;20507;-67
2021/03/16 03:07:22;;;;;;;0.40;0.30;;;;;;;4.08;100.00;100686.59;5074268;28;20458;-67
2021/03/16 03:09:48;;;;;;;0.40;0.30;;;;;;;3.99;100.00;100681.69;5074078;28;20461;-67
2021/03/16 03:12:14;;;;;;;0.40;0.30;;;;;;;3.97;100.00;100678.44;5074210;28;20448;-67
2021/03/16 03:14:40;;;;;;;0.40;0.30;;;;;;;3.97;100.00;100685.69;5074127;28;20544;-66
2021/03/16 03:17:07;;;;;;;1.07;0.97;;;;;;;3.80;100.00;100683.91;5074107;28;20441;-65
2021/03/16 03:19:33;;;;;;;0.60;0.60;;;;;;;3.80;100.00;100691.94;5074086;28;20512;-67
2021/03/16 03:22:05;;;;;;;0.70;0.50;;;;;;;3.82;100.00;100688.22;5073718;28;21021;-67
2021/03/16 03:24:36;;;;;;;0.70;0.67;;;;;;;3.80;100.00;100691.16;5074016;28;20465;-67
2021/03/16 03:27:07;;;;;;;0.50;0.40;;;;;;;3.86;100.00;100695.50;5073649;28;20483;-67
2021/03/16 03:29:34;;;;;;;0.40;0.30;;;;;;;3.89;100.00;100704.91;5073963;28;20429;-67
2021/03/16 03:32:01;;;;;;;0.40;0.30;;;;;;;3.82;100.00;100701.63;5073901;28;20512;-67
2021/03/16 03:34:27;;;;;;;0.50;0.30;;;;;;;3.89;100.00;100704.91;5073729;28;20461;-67
2021/03/16 03:36:56;;;;;;;0.40;0.30;;;;;;;3.93;100.00;100706.00;5073741;28;20446;-67
2021/03/16 03:39:25;;;;;;;1.00;1.00;;;;;;;3.98;100.00;100714.91;5073747;28;20438;-67
2021/03/16 03:41:52;;;;;;;0.60;0.30;;;;;;;3.99;100.00;100719.22;5073309;28;20481;-67
2021/03/16 03:44:21;;;;;;;0.77;0.50;;;;;;;3.95;100.00;100715.44;5073546;28;20461;-67
2021/03/16 03:46:49;;;;;;;0.57;0.50;;;;;;;3.94;100.00;100723.69;5073347;28;20942;-67
2021/03/16 03:49:16;;;;;;;0.50;0.30;;;;;;;3.85;100.00;100720.69;5073276;28;21016;-67
2021/03/16 03:51:44;;;;;;;9.40;2.30;;;;;;;3.84;100.00;100720.94;5073199;28;20448;-67
2021/03/16 03:54:11;;;;;;;0.40;0.30;;;;;;;3.77;100.00;100723.81;5073470;28;20461;-67
2021/03/16 03:56:39;;;;;;;3.23;1.13;;;;;;;3.70;100.00;100729.38;5073538;28;20453;-67
2021/03/16 03:59:06;;;;;;;0.83;0.50;;;;;;;3.71;100.00;100735.53;5073490;28;20434;-67
2021/03/16 04:01:35;;;;;;;0.40;0.40;;;;;;;3.61;100.00;100740.78;5073138;28;20489;-67
2021/03/16 04:04:03;;;;;;;0.40;0.30;;;;;;;3.54;100.00;100738.28;5073283;28;20469;-67
2021/03/16 04:06:30;;;;;;;0.50;0.40;;;;;;;3.54;100.00;100747.16;5073338;28;20841;-67
2021/03/16 04:08:57;;;;;;;0.50;0.40;;;;;;;3.53;100.00;100744.69;5073041;28;20453;-67
2021/03/16 04:11:24;;;;;;;0.53;0.50;;;;;;;3.57;100.00;100745.81;5072959;28;20780;-67
2021/03/16 04:13:53;;;;;;;1.13;0.57;;;;;;;3.57;100.00;100743.13;5073184;28;20461;-67
2021/03/16 04:16:20;;;;;;;0.70;0.70;;;;;;;3.56;100.00;100749.56;5073251;28;20456;-67
2021/03/16 04:18:47;;;;;;;6.23;1.77;;;;;;;3.61;100.00;100748.81;5073150;28;20436;-68
2021/03/16 04:21:14;;;;;;;0.50;0.40;;;;;;;3.54;100.00;100757.03;5073098;28;20477;-67
2021/03/16 04:23:40;;;;;;;0.40;0.30;;;;;;;3.61;100.00;100768.38;5073105;28;20469;-67
2021/03/16 04:26:06;;;;;;;0.60;0.40;;;;;;;3.71;100.00;100760.44;5073168;28;20445;-67
2021/03/16 04:28:32;;;;;;;0.40;0.33;;;;;;;3.74;100.00;100767.97;5073147;28;20794;-67
2021/03/16 04:30:59;;;;;;;0.50;0.30;;;;;;;3.71;100.00;100765.00;5073134;28;20437;-67
2021/03/16 04:33:25;;;;;;;0.40;0.30;;;;;;;3.72;100.00;100766.63;5073009;28;20510;-68
2021/03/16 04:35:51;;;;;;;0.40;0.30;;;;;;;3.77;100.00;100766.69;5073040;28;20444;-67
2021/03/16 04:38:17;;;;;;;0.93;0.40;;;;;;;3.75;100.00;100777.63;5074442;28;20448;-67
2021/03/16 04:40:44;;;;;;;1.10;0.57;;;;;;;3.68;100.00;100778.91;5077022;28;20491;-66
2021/03/16 04:43:11;;;;;;;0.40;0.30;;;;;;;3.79;100.00;100789.47;5077102;28;20472;-67
2021/03/16 04:45:37;;;;;;;1.13;0.50;;;;;;;3.79;100.00;100786.78;5077051;28;20445;-67
2021/03/16 04:48:05;;;;;;;0.40;0.30;;;;;;;3.83;100.00;100783.63;5077011;28;20860;-67
2021/03/16 04:50:31;;;;;;;0.43;0.43;;;;;;;3.83;100.00;100797.00;5076868;28;20440;-67
2021/03/16 04:52:57;;;;;;;0.40;0.30;;;;;;;3.76;100.00;100794.50;5076826;28;20448;-67
2021/03/16 04:55:23;;;;;;;0.40;0.30;;;;;;;3.80;100.00;100799.13;5076840;28;20448;-67
2021/03/16 04:57:49;;;;;;;2.30;0.63;;;;;;;3.80;100.00;100801.78;5076772;28;20444;-67
2021/03/16 05:00:17;;;;;;;1.17;0.40;;;;;;;3.84;100.00;100809.34;5076752;28;20924;-65
2021/03/16 05:02:42;;;;;;;0.87;0.53;;;;;;;3.77;100.00;100821.06;5076553;28;20484;-67
2021/03/16 05:05:11;;;;;;;1.00;0.60;;;;;;;3.80;100.00;100819.75;5086452;22;20493;-61
2021/03/16 05:07:37;;;;;;;2.53;0.83;;;;;;;3.80;100.00;100830.47;5057244;28;20445;-60
2021/03/16 05:10:03;;;;;;;1.40;0.70;;;;;;;3.80;100.00;100833.13;5056757;28;20891;-62
2021/03/16 05:12:29;;;;;;;0.40;0.23;;;;;;;3.82;100.00;100835.59;5057097;28;20446;-62
2021/03/16 05:14:55;;;;;;;5.17;0.87;;;;;;;3.90;100.00;100845.88;5057214;28;20454;-61
2021/03/16 05:17:21;;;;;;;0.50;0.50;;;;;;;3.85;100.00;100835.91;5057247;28;20815;-61
2021/03/16 05:19:47;;;;;;;0.60;0.60;;;;;;;3.88;100.00;100848.78;5056931;28;21021;-62
2021/03/16 05:22:14;;;;;;;2.73;0.70;;;;;;;3.87;99.71;100851.72;5057148;28;20477;-61
2021/03/16 05:24:40;;;;;;;0.40;0.40;;;;;;;3.95;100.00;100853.97;5057110;28;20461;-61
2021/03/16 05:27:06;;;;;;;0.40;0.37;;;;;;;3.96;99.92;100858.25;5057735;28;21005;-61
2021/03/16 05:29:32;;;;;;;0.40;0.30;;;;;;;4.05;99.31;100862.13;5057666;28;20954;-61
2021/03/16 05:31:58;;;;;;;1.03;1.03;;;;;;;4.01;98.63;100869.03;5057412;28;20445;-61
2021/03/16 05:34:24;;;;;;;1.40;0.63;;;;;;;4.04;98.70;100863.19;5056898;28;20492;-60
2021/03/16 05:36:50;;;;;;;0.80;0.80;;;;;;;3.96;98.75;100871.66;5056337;28;20866;-61
2021/03/16 05:39:17;;;;;;;0.40;0.30;;;;;;;3.93;98.98;100877.50;5056774;28;20468;-61
2021/03/16 05:41:43;;;;;;;0.40;0.40;;;;;;;3.84;98.74;100879.81;5056176;28;20539;-61
2021/03/16 05:44:09;;;;;;;0.40;0.30;;;;;;;3.99;98.42;100879.22;5056584;28;20466;-61
2021/03/16 05:46:35;;;;;;;0.60;0.43;;;;;;;3.99;98.03;100882.69;5056393;28;20449;-61
2021/03/16 05:49:04;;;;;;;0.90;0.57;;;;;;;3.98;98.29;100891.78;5056351;28;20492;-61
2021/03/16 05:51:30;;;;;;;0.40;0.30;;;;;;;3.98;97.37;100891.78;5056152;28;20815;-62
2021/03/16 05:53:57;;;;;;;0.50;0.33;;;;;;;3.94;97.56;100892.50;5056086;28;20523;-62
2021/03/16 05:56:23;;;;;;;3.43;0.90;;;;;;;3.91;97.04;100893.03;5056008;28;20443;-61
2021/03/16 05:58:50;;;;;;;1.23;0.77;;;;;;;3.97;97.05;100900.06;5056052;28;21013;-61
2021/03/16 06:01:16;;;;;;;0.50;0.50;;;;;;;4.02;96.31;100900.94;5056014;28;20478;-61
2021/03/16 06:03:42;;;;;;;0.40;0.30;;;;;;;3.93;95.62;100910.47;5055352;28;21048;-62
2021/03/16 06:06:08;;;;;;;0.40;0.30;;;;;;;3.93;95.81;100906.97;5055435;28;20912;-61
2021/03/16 06:08:34;;;;;;;0.53;0.33;;;;;;;3.90;96.25;100910.19;5055650;28;20442;-60
2021/03/16 06:11:01;;;;;;;0.40;0.30;;;;;;;4.01;96.56;100915.41;5055713;28;20499;-62
2021/03/16 06:13:28;;;;;;;0.50;0.50;;;;;;;4.00;96.46;100912.97;5055566;28;20446;-62
2021/03/16 06:15:53;;;;;;;0.40;0.30;;;;;;;4.10;96.15;100921.13;5055471;28;20438;-62
2021/03/16 06:18:27;;;;;;;0.70;0.40;;;;;;;4.16;96.36;100914.78;5055618;28;20492;-62
2021/03/16 06:21:00;;;;;;;0.40;0.30;;;;;;;4.20;95.24;100923.13;5055230;28;20501;-61
2021/03/16 06:23:30;;;;;;;0.60;0.57;;;;;;;4.10;93.56;100934.53;5055589;28;20499;-61
2021/03/16 06:25:56;;;;;;;0.40;0.40;;;;;;;4.05;93.62;100939.84;5055298;28;20472;-62
2021/03/16 06:28:22;;;;;;;0.50;0.40;;;;;;;3.92;93.99;100940.19;5055193;28;20470;-62
2021/03/16 06:30:49;;;;;;;0.50;0.40;;;;;;;3.98;94.40;100944.56;5055308;28;20446;-60
2021/03/16 06:33:19;;;;;;;0.40;0.30;;;;;;;4.10;94.71;100950.63;5055151;28;20477;-59
2021/03/16 06:35:56;;;;;;;0.80;0.40;;;;;;;4.19;94.20;100956.34;5055547;28;20504;-59
2021/03/16 06:38:21;;;;;;;0.70;0.70;;;;;;;4.22;93.75;100951.31;5055013;28;20459;-62
2021/03/16 06:40:47;;;;;;;0.40;0.30;;;;;;;4.19;93.21;100957.16;5055600;28;20447;-59
2021/03/16 06:43:13;;;;;;;3.30;0.93;;;;;;;4.04;93.02;100965.84;5055323;28;20457;-59
2021/03/16 06:45:40;;;;;;;0.40;0.40;;;;;;;4.03;93.36;100968.78;5055150;28;20450;-59
2021/03/16 06:48:17;;;;;;;0.97;0.60;;;;;;;4.13;92.83;100971.56;5055367;28;20454;-59
2021/03/16 06:50:44;;;;;;;0.80;0.60;;;;;;;4.15;92.30;100982.84;5054768;28;20794;-59
2021/03/16 06:53:13;;;;;;;0.50;0.30;;;;;;;4.01;92.71;100977.03;5054973;28;20445;-59
2021/03/16 06:55:50;;;;;;;1.37;0.97;;;;;;;3.95;93.26;100982.59;5055030;28;20524;-60
2021/03/16 06:58:16;;;;;;;1.17;0.87;;;;;;;4.05;93.08;100982.72;5054949;28;20422;-60
2021/03/16 07:00:42;;;;;;;0.40;0.30;;;;;;;4.14;93.17;100991.16;5053770;28;20948;-59
2021/03/16 07:03:12;;;;;;;0.50;0.33;;;;;;;4.22;93.33;100996.09;5054710;28;20450;-60
2021/03/16 07:05:39;;;;;;;0.40;0.30;;;;;;;4.34;93.59;100995.94;5057249;28;20445;-61
2021/03/16 07:08:06;;;;;;;0.57;0.50;;;;;;;4.39;92.74;100999.53;5057097;28;20453;-61
2021/03/16 07:10:34;;;;;;;0.40;0.30;;;;;;;4.40;92.14;100992.28;5055957;28;20474;-61
2021/03/16 07:13:01;;;;;;;0.40;0.30;;;;;;;4.44;91.90;100996.09;5055968;28;20500;-61
2021/03/16 07:15:29;;;;;;;1.13;0.83;;;;;;;4.41;91.74;101000.06;5056091;28;20464;-60
2021/03/16 07:17:55;;;;;;;0.40;0.33;;;;;;;4.37;91.22;101007.00;5054315;28;20454;-61
2021/03/16 07:20:22;;;;;;;0.80;0.50;;;;;;;4.21;91.62;101006.00;5054087;28;20808;-60
2021/03/16 07:22:52;;;;;;;0.40;0.30;;;;;;;4.22;92.05;101010.28;5054013;28;20848;-60
2021/03/16 07:25:19;;;;;;;0.83;0.50;;;;;;;4.26;91.81;101015.97;5053671;28;20553;-60
2021/03/16 07:27:46;;;;;;;0.70;0.40;;;;;;;4.21;91.59;101023.97;5054038;28;20442;-59
2021/03/16 07:30:13;;;;;;;0.40;0.30;;;;;;;4.14;92.23;101026.81;5053953;28;20441;-61
2021/03/16 07:32:41;;;;;;;2.77;1.10;;;;;;;4.20;92.34;101025.00;5053964;28;20442;-60
2021/03/16 07:35:08;;;;;;;0.87;0.43;;;;;;;4.24;92.31;101024.25;5053883;28;20466;-61
2021/03/16 07:37:35;;;;;;;0.40;0.30;;;;;;;4.34;91.60;101022.75;5053840;28;20449;-60
2021/03/16 07:40:05;;;;;;;1.70;0.73;;;;;;;4.45;91.37;101029.88;5053773;28;20443;-60
2021/03/16 07:42:32;;;;;;;0.60;0.57;;;;;;;4.60;90.73;101037.31;5053712;28;20467;-60
2021/03/16 07:44:58;;;;;;;0.67;0.53;;;;;;;4.62;89.94;101036.00;5053582;28;20824;-59
2021/03/16 07:47:33;;;;;;;0.40;0.40;;;;;;;4.66;90.01;101042.50;5053675;28;20446;-60
2021/03/16 07:50:05;;;;;;;0.60;0.40;;;;;;;4.71;90.17;101044.44;5053814;28;20429;-62
2021/03/16 07:52:31;;;;;;;0.97;0.97;;;;;;;4.60;90.65;101043.47;5053247;28;20442;-62
2021/03/16 07:54:57;;;;;;;0.50;0.40;;;;;;;4.62;91.12;101056.66;5053932;28;20454;-60
2021/03/16 07:57:28;;;;;;;0.40;0.30;;;;;;;4.55;90.28;101063.00;5053221;28;20461;-60
2021/03/16 07:59:59;;;;;;;0.70;0.50;;;;;;;4.71;90.57;101066.69;5053367;28;21012;-62
2021/03/16 08:02:29;;;;;;;0.40;0.30;;;;;;;4.54;89.36;101068.63;5053458;28;20522;-61
2021/03/16 08:04:55;;;;;;;0.50;0.37;;;;;;;4.59;89.72;101071.38;5053156;28;20581;-62
2021/03/16 08:07:22;;;;;;;13.23;1.00;;;;;;;4.65;90.22;101077.59;5053486;28;20439;-61
2021/03/16 08:09:51;;;;;;;0.80;0.40;;;;;;;4.58;90.26;101085.03;5053434;28;20477;-60
2021/03/16 08:12:21;;;;;;;0.40;0.30;;;;;;;4.61;89.78;101077.31;5052837;28;20447;-61
2021/03/16 08:14:48;;;;;;;0.60;0.60;;;;;;;4.63;89.47;101088.59;5052966;28;20528;-61
2021/03/16 08:17:26;;;;;;;0.50;0.40;;;;;;;4.74;88.75;101090.38;5053314;28;20491;-61
2021/03/16 08:19:52;;;;;;;1.53;0.40;;;;;;;4.79;88.97;101093.09;5053270;28;20430;-60
2021/03/16 08:22:20;;;;;;;0.40;0.30;;;;;;;4.69;87.44;101084.09;5053187;28;20488;-60
2021/03/16 08:24:46;;;;;;;0.83;0.50;;;;;;;4.69;87.75;101095.66;5053155;28;20538;-61
2021/03/16 08:27:14;;;;;;;0.40;0.30;;;;;;;4.74;87.74;101097.59;5053249;28;20481;-61
2021/03/16 08:29:43;;;;;;;1.00;0.40;;;;;;;4.79;87.58;101100.34;5053481;28;20488;-61
2021/03/16 08:32:14;;;;;;;0.40;0.30;;;;;;;4.80;87.15;101097.41;5053101;28;20487;-61
2021/03/16 08:34:41;;;;;;;0.80;0.30;;;;;;;4.88;86.86;101104.22;5052936;28;20462;-60
2021/03/16 08:37:08;;;;;;;1.40;1.13;;;;;;;4.82;86.37;101107.88;5053115;28;20533;-60
2021/03/16 08:39:34;;;;;;;0.60;0.50;;;;;;;4.84;86.00;101110.34;5052793;28;20819;-60
2021/03/16 08:42:02;;;;;;;0.40;0.30;;;;;;;4.81;86.61;101108.94;5052695;28;20481;-61
2021/03/16 08:44:29;;;;;;;0.57;0.40;;;;;;;4.74;86.54;101103.78;5052665;28;20474;-61
2021/03/16 08:47:08;;;;;;;1.03;0.93;;;;;;;4.80;86.70;101110.81;5052921;28;20449;-61
2021/03/16 08:49:38;;;;;;;0.40;0.30;;;;;;;4.76;85.27;101107.00;5053015;28;20433;-60
2021/03/16 08:52:05;;;;;;;3.90;0.97;;;;;;;4.79;86.43;101109.22;5052982;28;20469;-60
2021/03/16 08:54:31;;;;;;;0.70;0.70;;;;;;;4.88;87.01;101114.13;5052901;28;20462;-61
2021/03/16 08:56:58;;;;;;;0.40;0.30;;;;;;;4.87;86.41;101115.19;5052933;28;20457;-61
2021/03/16 08:59:24;;;;;;;0.40;0.40;;;;;;;4.88;86.71;101109.59;5052502;28;20446;-61
2021/03/16 09:01:51;;;;;;;0.40;0.30;;;;;;;4.95;86.03;101114.75;5052465;28;21011;-60
2021/03/16 09:04:18;;;;;;;4.23;0.93;;;;;;;5.07;85.85;101118.94;5052370;28;20473;-61
2021/03/16 09:06:49;;;;;;;0.73;0.70;;;;;;;5.40;86.44;101117.16;5052758;28;20442;-60
2021/03/16 09:09:23;;;;;;;1.20;0.37;;;;;;;5.68;85.70;101129.50;5052457;28;20908;-61
2021/03/16 09:11:49;;;;;;;0.80;0.60;;;;;;;5.58;82.93;101118.66;5052678;28;20487;-60
2021/03/16 09:14:17;;;;;;;4.40;0.80;;;;;;;5.51;83.46;101134.97;5052572;28;20462;-60
2021/03/16 09:16:44;;;;;;;0.40;0.30;;;;;;;5.56;83.52;101121.59;5052612;28;20439;-61
2021/03/16 09:19:12;;;;;;;0.40;0.27;;;;;;;5.77;83.51;101119.91;5052639;28;20445;-61
2021/03/16 09:21:49;;;;;;;0.57;0.47;;;;;;;5.88;81.74;101126.16;5052575;28;20486;-60
2021/03/16 09:24:19;;;;;;;0.40;0.37;;;;;;;5.74;81.86;101136.53;5053827;28;20465;-61
2021/03/16 09:26:53;;;;;;;1.00;0.50;;;;;;;5.88;82.47;101131.53;5056228;28;20430;-60
2021/03/16 09:29:20;;;;;;;1.10;1.00;;;;;;;6.01;81.14;101124.97;5056420;28;20422;-61
2021/03/16 09:31:46;;;;;;;0.50;0.40;;;;;;;6.07;79.28;101134.72;5056462;28;20434;-60
2021/03/16 09:34:13;;;;;;;0.60;0.60;;;;;;;6.16;78.43;101141.22;5056142;28;20477;-62
2021/03/16 09:36:39;;;;;;;0.40;0.30;;;;;;;6.22;77.21;101134.81;5056072;28;20943;-60
2021/03/16 09:39:06;;;;;;;0.40;0.30;;;;;;;6.19;79.29;101135.31;5056091;28;20438;-61
2021/03/16 09:41:32;;;;;;;0.70;0.70;;;;;;;6.39;78.79;101136.53;5056056;28;20482;-61
2021/03/16 09:43:58;;;;;;;0.60;0.60;;;;;;;6.41;75.82;101137.09;5056024;28;20473;-60
2021/03/16 09:46:24;;;;;;;0.40;0.40;;;;;;;6.27;76.21;101132.16;5055990;28;20495;-60
2021/03/16 09:48:55;;;;;;;0.60;0.40;;;;;;;6.12;74.76;101139.31;5055604;28;20441;-60
2021/03/16 09:51:22;;;;;;;0.50;0.47;;;;;;;6.28;76.44;101141.84;5055930;28;20434;-60
2021/03/16 09:53:49;;;;;;;0.40;0.30;;;;;;;6.28;75.90;101139.16;5055694;28;20489;-61
2021/03/16 09:56:17;;;;;;;1.13;0.40;;;;;;;6.45;75.54;101128.22;5055735;28;20430;-60
2021/03/16 09:58:49;;;;;;;0.50;0.40;;;;;;;6.54;75.35;101137.44;5054802;28;20462;-61
2021/03/16 10:01:20;;;;;;;0.73;0.40;;;;;;;6.39;73.44;101129.28;5055251;28;20564;-60
2021/03/16 10:03:54;;;;;;;0.40;0.27;;;;;;;6.50;75.77;101146.28;5055202;28;20477;-61
2021/03/16 10:06:32;;;;;;;0.40;0.30;;;;;;;6.51;74.67;101145.25;5055627;28;20437;-61
2021/03/16 10:08:58;;;;;;;3.90;0.70;;;;;;;6.44;71.29;101147.34;5055716;28;20464;-61
2021/03/16 10:11:31;;;;;;;0.60;0.30;;;;;;;6.44;71.68;101144.66;5055460;28;20449;-61
2021/03/16 10:13:58;;;;;;;0.53;0.30;;;;;;;6.63;71.43;101145.03;5055468;28;20469;-62
2021/03/16 10:16:29;;;;;;;0.40;0.30;;;;;;;6.74;70.20;101139.44;5055137;28;20438;-61
2021/03/16 10:18:55;;;;;;;0.83;0.40;;;;;;;6.76;71.52;101150.75;5055278;28;20508;-61
2021/03/16 10:21:28;;;;;;;0.40;0.30;;;;;;;6.53;70.37;101140.38;5055323;28;20482;-61
2021/03/16 10:23:57;;;;;;;0.50;0.40;;;;;;;6.72;72.41;101149.66;5055268;28;20957;-61
2021/03/16 10:26:23;;;;;;;0.60;0.40;;;;;;;6.96;72.24;101152.75;5055221;28;20477;-61
2021/03/16 10:28:50;;;;;;;1.50;1.40;;;;;;;7.10;71.08;101152.25;5055237;28;20875;-61
2021/03/16 10:31:17;;;;;;;0.40;0.30;;;;;;;7.24;70.99;101146.09;5054728;28;20522;-62
2021/03/16 10:33:44;;;;;;;0.50;0.37;;;;;;;7.20;69.30;101158.47;5055036;28;20851;-61
2021/03/16 10:36:10;;;;;;;0.40;0.30;;;;;;;7.13;69.97;101154.41;5054195;28;20465;-61
2021/03/16 10:38:36;;;;;;;0.40;0.30;;;;;;;7.23;69.34;101160.66;5055004;28;20443;-62
2021/03/16 10:41:03;;;;;;;0.60;0.30;;;;;;;7.07;70.52;101150.88;5054603;28;20817;-61
2021/03/16 10:43:29;;;;;;;0.70;0.30;;;;;;;7.21;68.98;101157.41;5054761;28;20438;-61
2021/03/16 10:45:56;;;;;;;0.40;0.30;;;;;;;7.26;68.28;101156.59;5054921;28;20533;-61
2021/03/16 10:48:22;;;;;;;0.40;0.30;;;;;;;7.31;67.71;101170.94;5054763;28;20813;-61
2021/03/16 10:50:49;;;;;;;0.40;0.30;;;;;;;7.24;68.21;101162.25;5054479;28;20940;-61
2021/03/16 10:53:15;;;;;;;0.50;0.30;;;;;;;6.98;68.71;101172.13;5054305;28;20811;-62
2021/03/16 10:55:42;;;;;;;0.50;0.40;;;;;;;7.11;69.06;101165.44;5054667;28;20451;-61
2021/03/16 10:58:08;;;;;;;0.40;0.20;;;;;;;7.46;69.31;101164.75;5054292;28;20955;-61
2021/03/16 11:00:34;;;;;;;10.93;0.60;;;;;;;7.58;67.62;101164.53;5054212;28;20815;-61
2021/03/16 11:03:02;;;;;;;0.53;0.53;;;;;;;7.67;66.95;101170.22;5054525;28;20478;-61
2021/03/16 11:05:28;;;;;;;0.40;0.30;;;;;;;7.75;65.38;101183.97;5065119;22;20500;-76
2021/03/16 11:07:54;;;;;;;0.40;0.30;;;;;;;7.65;65.08;101161.56;5058928;28;20482;-78
2021/03/16 11:10:20;;;;;;;0.60;0.50;;;;;;;7.75;66.27;101159.72;5056645;28;20457;-77
2021/03/16 11:12:46;;;;;;;0.40;0.30;;;;;;;7.82;64.73;101176.41;5055474;28;20442;-76
2021/03/16 11:15:12;;;;;;;11.43;1.43;;;;;;;7.78;66.29;101167.25;5054665;28;20442;-75
2021/03/16 11:17:38;;;;;;;1.07;0.50;;;;;;;8.06;67.83;101184.00;5054661;28;20446;-75
2021/03/16 11:20:07;;;;;;;0.97;0.63;;;;;;;8.10;68.04;101176.97;5054581;28;20457;-75
2021/03/16 11:22:33;;;;;;;0.70;0.53;;;;;;;8.27;68.63;101179.41;5054362;28;20482;-75
2021/03/16 11:24:59;;;;;;;0.80;0.50;;;;;;;8.20;67.31;101177.00;5054435;28;20504;-76
2021/03/16 11:27:25;;;;;;;3.43;0.90;;;;;;;8.19;68.32;101188.03;5054520;28;20488;-75
2021/03/16 11:29:51;;;;;;;1.00;0.73;;;;;;;8.02;67.71;101181.03;5054471;28;20446;-76